Observation data for Saint Lawrence on 05/13/2018      Previous  Date  Next       Current Mesonet Observations  Soil Data  Daily Summary Page  Observations in Plain Language
KST1 130500Z 15016G22KT 27/15 A2994 RMK A01 T02650147  RH  049%=      5-min Rain = 0
KST1 130505Z 15015G20KT 26/15 A2995 RMK A01 T02640148  RH  050%=      5-min Rain = 0
KST1 130510Z 15015KT 26/15 A2995 RMK A01 T02630149  RH  051%=      5-min Rain = 0
KST1 130515Z 16015KT 26/15 A2995 RMK A01 T02630150  RH  051%=      5-min Rain = 0
KST1 130520Z 16016G22KT 26/15 A2995 RMK A01 T02620151  RH  051%=      5-min Rain = 0
KST1 130525Z 16017KT 26/15 A2995 RMK A01 T02620151  RH  052%=      5-min Rain = 0
KST1 130530Z 16017KT 26/15 A2995 RMK A01 T02610152  RH  052%=      5-min Rain = 0
KST1 130535Z 16016KT 26/15 A2995 RMK A01 T02600152  RH  052%=      5-min Rain = 0
KST1 130540Z 16017KT 26/15 A2995 RMK A01 T02600152  RH  052%=      5-min Rain = 0
KST1 130545Z 16015KT 26/15 A2995 RMK A01 T02590152  RH  053%=      5-min Rain = 0
KST1 130550Z 16017G22KT 26/15 A2995 RMK A01 T02580151  RH  053%=      5-min Rain = 0
KST1 130555Z 16017KT 26/15 A2995 RMK A01 T02580151  RH  053%=      5-min Rain = 0
KST1 130600Z 16017KT 26/15 A2995 RMK A01 T02570151  RH  053%=      5-min Rain = 0
KST1 130605Z 16017KT 26/15 A2995 RMK A01 T02570150  RH  053%=      5-min Rain = 0
KST1 130610Z 15016KT 26/15 A2995 RMK A01 T02560150  RH  053%=      5-min Rain = 0
KST1 130615Z 16017G22KT 26/15 A2995 RMK A01 T02560149  RH  053%=      5-min Rain = 0
KST1 130620Z 15016G21KT 26/15 A2995 RMK A01 T02550149  RH  053%=      5-min Rain = 0
KST1 130625Z 15016KT 25/15 A2995 RMK A01 T02540149  RH  053%=      5-min Rain = 0
KST1 130630Z 15016KT 25/15 A2995 RMK A01 T02530149  RH  053%=      5-min Rain = 0
KST1 130635Z 15017KT 25/15 A2995 RMK A01 T02530149  RH  054%=      5-min Rain = 0
KST1 130640Z 15015KT 25/15 A2995 RMK A01 T02520148  RH  054%=      5-min Rain = 0
KST1 130645Z 15014G19KT 25/15 A2995 RMK A01 T02510148  RH  054%=      5-min Rain = 0
KST1 130650Z 15015KT 25/15 A2994 RMK A01 T02500148  RH  054%=      5-min Rain = 0
KST1 130655Z 15015KT 25/15 A2994 RMK A01 T02490148  RH  054%=      5-min Rain = 0
KST1 130700Z 15015G20KT 25/15 A2994 RMK A01 T02490147  RH  054%=      5-min Rain = 0
KST1 130705Z 15015KT 25/15 A2994 RMK A01 T02480147  RH  055%=      5-min Rain = 0
KST1 130710Z 15015KT 25/15 A2994 RMK A01 T02470147  RH  055%=      5-min Rain = 0
KST1 130715Z 15014KT 25/15 A2994 RMK A01 T02470146  RH  055%=      5-min Rain = 0
KST1 130720Z 15014KT 25/15 A2994 RMK A01 T02460146  RH  055%=      5-min Rain = 0
KST1 130725Z 15014KT 25/15 A2994 RMK A01 T02450146  RH  055%=      5-min Rain = 0
KST1 130730Z 15014KT 25/15 A2994 RMK A01 T02450145  RH  055%=      5-min Rain = 0
KST1 130735Z 15013KT 24/15 A2994 RMK A01 T02430145  RH  055%=      5-min Rain = 0
KST1 130740Z 15012KT 24/15 A2994 RMK A01 T02410145  RH  056%=      5-min Rain = 0
KST1 130745Z 15013KT 24/15 A2994 RMK A01 T02400145  RH  056%=      5-min Rain = 0
KST1 130750Z 15013KT 24/15 A2993 RMK A01 T02400145  RH  057%=      5-min Rain = 0
KST1 130755Z 15014KT 24/15 A2993 RMK A01 T02390146  RH  057%=      5-min Rain = 0
KST1 130800Z 15013KT 24/15 A2993 RMK A01 T02390146  RH  057%=      5-min Rain = 0
KST1 130805Z 15014G20KT 24/15 A2993 RMK A01 T02380146  RH  058%=      5-min Rain = 0
KST1 130810Z 15014KT 24/15 A2993 RMK A01 T02380146  RH  057%=      5-min Rain = 0
KST1 130815Z 15014KT 24/15 A2993 RMK A01 T02370146  RH  058%=      5-min Rain = 0
KST1 130820Z 15014KT 24/15 A2993 RMK A01 T02370146  RH  058%=      5-min Rain = 0
KST1 130825Z 15015G22KT 24/15 A2993 RMK A01 T02380147  RH  058%=      5-min Rain = 0
KST1 130830Z 15016KT 24/15 A2993 RMK A01 T02370147  RH  058%=      5-min Rain = 0
KST1 130835Z 15016G21KT 24/15 A2993 RMK A01 T02360148  RH  059%=      5-min Rain = 0
KST1 130840Z 15016KT 24/15 A2993 RMK A01 T02360148  RH  059%=      5-min Rain = 0
KST1 130845Z 15015KT 24/15 A2993 RMK A01 T02350149  RH  060%=      5-min Rain = 0
KST1 130850Z 16015KT 24/15 A2993 RMK A01 T02350149  RH  060%=      5-min Rain = 0
KST1 130855Z 16015KT 23/15 A2993 RMK A01 T02340151  RH  061%=      5-min Rain = 0
KST1 130900Z 15014KT 23/15 A2993 RMK A01 T02340151  RH  061%=      5-min Rain = 0
KST1 130905Z 15014G19KT 23/15 A2994 RMK A01 T02330153  RH  062%=      5-min Rain = 0
KST1 130910Z 15014KT 23/15 A2994 RMK A01 T02320154  RH  063%=      5-min Rain = 0
KST1 130915Z 15012KT 23/15 A2994 RMK A01 T02310154  RH  063%=      5-min Rain = 0
KST1 130920Z 15012G17KT 23/16 A2994 RMK A01 T02300156  RH  064%=      5-min Rain = 0
KST1 130925Z 15012KT 23/16 A2994 RMK A01 T02290156  RH  065%=      5-min Rain = 0
KST1 130930Z 16011KT 23/16 A2995 RMK A01 T02290157  RH  065%=      5-min Rain = 0
KST1 130935Z 16011KT 23/16 A2995 RMK A01 T02280159  RH  066%=      5-min Rain = 0
KST1 130940Z 16011KT 23/16 A2995 RMK A01 T02280160  RH  067%=      5-min Rain = 0
KST1 130945Z 16013KT 23/16 A2995 RMK A01 T02280163  RH  068%=      5-min Rain = 0
KST1 130950Z 17011KT 23/16 A2995 RMK A01 T02280164  RH  069%=      5-min Rain = 0
KST1 130955Z 19010KT 23/17 A2997 RMK A01 T02280165  RH  070%=      5-min Rain = 0
KST1 131000Z 19009KT 23/17 A2997 RMK A01 T02280167  RH  070%=      5-min Rain = 0
KST1 131005Z 17011KT 23/17 A2996 RMK A01 T02280168  RH  070%=      5-min Rain = 0
KST1 131010Z 18009KT 23/17 A2997 RMK A01 T02280169  RH  071%=      5-min Rain = 0
KST1 131015Z 19011KT 23/17 A2997 RMK A01 T02290171  RH  072%=      5-min Rain = 0
KST1 131020Z 17014KT 23/17 A2996 RMK A01 T02290171  RH  072%=      5-min Rain = 0
KST1 131025Z 18011KT 23/17 A2997 RMK A01 T02280172  RH  073%=      5-min Rain = 0
KST1 131030Z 17013KT 23/17 A2997 RMK A01 T02280173  RH  073%=      5-min Rain = 0
KST1 131035Z 16014G19KT 23/17 A2996 RMK A01 T02270174  RH  073%=      5-min Rain = 0
KST1 131040Z 18011KT 23/17 A2997 RMK A01 T02270174  RH  074%=      5-min Rain = 0
KST1 131045Z 16013KT 23/17 A2995 RMK A01 T02260174  RH  074%=      5-min Rain = 0
KST1 131050Z 17012KT 23/18 A2997 RMK A01 T02260175  RH  075%=      5-min Rain = 0
KST1 131055Z 16015KT 23/18 A2996 RMK A01 T02260176  RH  075%=      5-min Rain = 0
KST1 131100Z 16015KT 23/18 A2996 RMK A01 T02260177  RH  076%=      5-min Rain = 0
KST1 131105Z 16015KT 23/18 A2996 RMK A01 T02260178  RH  076%=      5-min Rain = 0
KST1 131110Z 16015KT 23/18 A2996 RMK A01 T02260179  RH  077%=      5-min Rain = 0
KST1 131115Z 16014KT 23/18 A2996 RMK A01 T02250179  RH  077%=      5-min Rain = 0
KST1 131120Z 17014KT 22/18 A2996 RMK A01 T02240179  RH  077%=      5-min Rain = 0
KST1 131125Z 17013KT 22/18 A2996 RMK A01 T02240179  RH  078%=      5-min Rain = 0
KST1 131130Z 17015KT 22/18 A2996 RMK A01 T02240179  RH  078%=      5-min Rain = 0
KST1 131135Z 16014KT 22/18 A2996 RMK A01 T02240179  RH  078%=      5-min Rain = 0
KST1 131140Z 17014KT 22/18 A2996 RMK A01 T02240180  RH  078%=      5-min Rain = 0
KST1 131145Z 17016KT 23/18 A2996 RMK A01 T02250179  RH  077%=      5-min Rain = 0
KST1 131150Z 17015G21KT 23/18 A2996 RMK A01 T02250178  RH  077%=      5-min Rain = 0
KST1 131155Z 17015G21KT 23/18 A2996 RMK A01 T02250178  RH  077%=      5-min Rain = 0
KST1 131200Z 17014KT 23/18 A2996 RMK A01 T02250178  RH  077%=      5-min Rain = 0
KST1 131205Z 16013KT 23/18 A2996 RMK A01 T02250178  RH  077%=      5-min Rain = 0
KST1 131210Z 17016KT 23/18 A2996 RMK A01 T02250180  RH  077%=      5-min Rain = 0
KST1 131215Z 17015KT 23/18 A2997 RMK A01 T02250179  RH  077%=      5-min Rain = 0
KST1 131220Z 17017KT 23/18 A2997 RMK A01 T02260180  RH  077%=      5-min Rain = 0
KST1 131225Z 17018KT 23/18 A2997 RMK A01 T02260179  RH  077%=      5-min Rain = 0
KST1 131230Z 17019KT 23/18 A2997 RMK A01 T02270179  RH  076%=      5-min Rain = 0
KST1 131235Z 17018KT 23/18 A2997 RMK A01 T02280178  RH  076%=      5-min Rain = 0
KST1 131240Z 17019KT 23/18 A2998 RMK A01 T02280178  RH  075%=      5-min Rain = 0
KST1 131245Z 17018KT 23/18 A2998 RMK A01 T02280177  RH  075%=      5-min Rain = 0
KST1 131250Z 17019G26KT 23/18 A2998 RMK A01 T02280177  RH  075%=      5-min Rain = 0
KST1 131255Z 17019KT 23/18 A2998 RMK A01 T02280177  RH  075%=      5-min Rain = 0
KST1 131300Z 17019G24KT 23/18 A2999 RMK A01 T02280176  RH  075%=      5-min Rain = 0
KST1 131305Z 17017G23KT 23/18 A2999 RMK A01 T02270176  RH  075%=      5-min Rain = 0
KST1 131310Z 17019G24KT 23/18 A2999 RMK A01 T02270176  RH  075%=      5-min Rain = 0
KST1 131315Z 17019KT 23/18 A2999 RMK A01 T02260176  RH  075%=      5-min Rain = 0
KST1 131320Z 17016KT 23/18 A2999 RMK A01 T02270176  RH  075%=      5-min Rain = 0
KST1 131325Z 17017G22KT 23/18 A2999 RMK A01 T02280176  RH  074%=      5-min Rain = 0
KST1 131330Z 17017G23KT 23/18 A2999 RMK A01 T02280176  RH  074%=      5-min Rain = 0
KST1 131335Z 17018G23KT 23/18 A30 RMK A01 T02290176  RH  074%=      5-min Rain = 0
KST1 131340Z 17018KT 23/18 A30 RMK A01 T02300176  RH  074%=      5-min Rain = 0
KST1 131345Z 17018KT 23/18 A30 RMK A01 T02300176  RH  073%=      5-min Rain = 0
KST1 131350Z 17017G22KT 23/18 A30 RMK A01 T02330177  RH  073%=      5-min Rain = 0
KST1 131355Z 17017KT 23/18 A30 RMK A01 T02340177  RH  072%=      5-min Rain = 0
KST1 131400Z 17018KT 23/18 A30 RMK A01 T02340177  RH  072%=      5-min Rain = 0
KST1 131405Z 17019KT 24/18 A3001 RMK A01 T02360177  RH  071%=      5-min Rain = 0
KST1 131410Z 17019G24KT 24/18 A3001 RMK A01 T02370176  RH  070%=      5-min Rain = 0
KST1 131415Z 17017G22KT 24/18 A3001 RMK A01 T02350176  RH  071%=      5-min Rain = 0
KST1 131420Z 18017G22KT 24/18 A3001 RMK A01 T02390177  RH  070%=      5-min Rain = 0
KST1 131425Z 18018KT 24/18 A3001 RMK A01 T02430178  RH  069%=      5-min Rain = 0
KST1 131430Z 18019KT 24/18 A3001 RMK A01 T02440177  RH  068%=      5-min Rain = 0
KST1 131435Z 17019KT 25/18 A3001 RMK A01 T02480177  RH  066%=      5-min Rain = 0
KST1 131440Z 17019KT 25/18 A3002 RMK A01 T02510178  RH  065%=      5-min Rain = 0
KST1 131445Z 18019G24KT 25/18 A3002 RMK A01 T02490176  RH  065%=      5-min Rain = 0
KST1 131450Z 17019KT 25/18 A3002 RMK A01 T02500176  RH  065%=      5-min Rain = 0
KST1 131455Z 17017KT 25/18 A3002 RMK A01 T02510177  RH  065%=      5-min Rain = 0
KST1 131500Z 17018KT 26/18 A3002 RMK A01 T02550177  RH  064%=      5-min Rain = 0
KST1 131505Z 18018KT 26/18 A3002 RMK A01 T02570177  RH  063%=      5-min Rain = 0
KST1 131510Z 18019G24KT 25/18 A3002 RMK A01 T02540175  RH  063%=      5-min Rain = 0
KST1 131515Z 19018KT 26/18 A3002 RMK A01 T02570176  RH  062%=      5-min Rain = 0
KST1 131520Z 17018KT 26/18 A3002 RMK A01 T02600176  RH  061%=      5-min Rain = 0
KST1 131525Z 17019KT 27/18 A3002 RMK A01 T02650175  RH  059%=      5-min Rain = 0
KST1 131530Z 18018G23KT 26/18 A3002 RMK A01 T02640175  RH  059%=      5-min Rain = 0
KST1 131535Z 18019G25KT 26/18 A3002 RMK A01 T02630176  RH  060%=      5-min Rain = 0
KST1 131540Z 18018KT 27/18 A3002 RMK A01 T02650176  RH  060%=      5-min Rain = 0
KST1 131545Z 18019G25KT 27/17 A3002 RMK A01 T02660174  RH  059%=      5-min Rain = 0
KST1 131550Z 17018KT 27/18 A3002 RMK A01 T02650176  RH  059%=      5-min Rain = 0
KST1 131555Z 17018G23KT 27/18 A3002 RMK A01 T02690176  RH  058%=      5-min Rain = 0
KST1 131600Z 18018G23KT 27/18 A3002 RMK A01 T02700175  RH  058%=      5-min Rain = 0
KST1 131605Z 17017G22KT 27/18 A3002 RMK A01 T02710175  RH  057%=      5-min Rain = 0
KST1 131610Z 17017KT 27/17 A3002 RMK A01 T02690174  RH  057%=      5-min Rain = 0
KST1 131615Z 17016G21KT 27/17 A3002 RMK A01 T02740174  RH  056%=      5-min Rain = 0
KST1 131620Z 19016KT 27/17 A3002 RMK A01 T02690173  RH  057%=      5-min Rain = 0
KST1 131625Z 19015G21KT 27/17 A3002 RMK A01 T02700172  RH  056%=      5-min Rain = 0
KST1 131630Z 18016G22KT 27/17 A3002 RMK A01 T02670171  RH  057%=      5-min Rain = 0
KST1 131635Z 18016G22KT 27/17 A3002 RMK A01 T02690171  RH  056%=      5-min Rain = 0
KST1 131640Z 18016G22KT 27/17 A3002 RMK A01 T02710170  RH  056%=      5-min Rain = 0
KST1 131645Z 18015G20KT 27/17 A3002 RMK A01 T02690171  RH  056%=      5-min Rain = 0
KST1 131650Z 18016G25KT 27/17 A3002 RMK A01 T02730172  RH  055%=      5-min Rain = 0
KST1 131655Z 19015KT 27/17 A3002 RMK A01 T02740171  RH  055%=      5-min Rain = 0
KST1 131700Z 18015G23KT 28/17 A3002 RMK A01 T02800172  RH  053%=      5-min Rain = 0
KST1 131705Z 19015G21KT 28/17 A3002 RMK A01 T02790170  RH  053%=      5-min Rain = 0
KST1 131710Z 19013G19KT 28/17 A3002 RMK A01 T02770167  RH  053%=      5-min Rain = 0
KST1 131715Z 21013G18KT 28/16 A3001 RMK A01 T02800163  RH  050%=      5-min Rain = 0
KST1 131720Z 19014G23KT 28/17 A3001 RMK A01 T02800167  RH  051%=      5-min Rain = 0
KST1 131725Z 20013G19KT 28/16 A3001 RMK A01 T02840160  RH  048%=      5-min Rain = 0
KST1 131730Z 19012G19KT 29/16 A3001 RMK A01 T02870162  RH  048%=      5-min Rain = 0
KST1 131735Z 20012G19KT 29/16 A3001 RMK A01 T02860160  RH  048%=      5-min Rain = 0
KST1 131740Z 20014KT 29/16 A3001 RMK A01 T02890161  RH  047%=      5-min Rain = 0
KST1 131745Z 20012G17KT 29/16 A3001 RMK A01 T02910157  RH  045%=      5-min Rain = 0
KST1 131750Z 19011G17KT 29/16 A30 RMK A01 T02890158  RH  046%=      5-min Rain = 0
KST1 131755Z 18013KT 29/16 A30 RMK A01 T02910160  RH  046%=      5-min Rain = 0
KST1 131800Z 19010KT 29/16 A30 RMK A01 T02900160  RH  046%=      5-min Rain = 0
KST1 131805Z 19012G17KT 30/16 A30 RMK A01 T02950159  RH  045%=      5-min Rain = 0
KST1 131810Z 19011G17KT 30/16 A2999 RMK A01 T03010159  RH  043%=      5-min Rain = 0
KST1 131815Z 20012G17KT 29/16 A2999 RMK A01 T02940157  RH  044%=      5-min Rain = 0
KST1 131820Z 18010G15KT 30/15 A2999 RMK A01 T02980153  RH  042%=      5-min Rain = 0
KST1 131825Z 19011G18KT 30/15 A2999 RMK A01 T02950152  RH  043%=      5-min Rain = 0
KST1 131830Z 19013KT 30/16 A2999 RMK A01 T02950156  RH  044%=      5-min Rain = 0
KST1 131835Z 17012G17KT 30/16 A2998 RMK A01 T02980155  RH  043%=      5-min Rain = 0
KST1 131840Z 18012G17KT 31/16 A2998 RMK A01 T03050156  RH  042%=      5-min Rain = 0
KST1 131845Z 18012G18KT 31/16 A2998 RMK A01 T03050155  RH  041%=      5-min Rain = 0
KST1 131850Z 18010G16KT 30/15 A2998 RMK A01 T03040149  RH  040%=      5-min Rain = 0
KST1 131855Z 16010G15KT 30/15 A2998 RMK A01 T02990153  RH  042%=      5-min Rain = 0
KST1 131900Z 20011G17KT 30/15 A2998 RMK A01 T03040146  RH  039%=      5-min Rain = 0
KST1 131905Z 18010G16KT 30/15 A2997 RMK A01 T03020150  RH  041%=      5-min Rain = 0
KST1 131910Z 18013G18KT 31/16 A2997 RMK A01 T03050155  RH  041%=      5-min Rain = 0
KST1 131915Z 17013KT 30/16 A2998 RMK A01 T03030155  RH  042%=      5-min Rain = 0
KST1 131920Z 18014KT 30/16 A2998 RMK A01 T03040157  RH  042%=      5-min Rain = 0
KST1 131925Z 18012G18KT 30/16 A2997 RMK A01 T03000155  RH  042%=      5-min Rain = 0
KST1 131930Z 18011KT 30/16 A2997 RMK A01 T02950155  RH  044%=      5-min Rain = 0
KST1 131935Z 17010KT 30/16 A2997 RMK A01 T02950155  RH  044%=      5-min Rain = 0
KST1 131940Z 16011KT 29/15 A2996 RMK A01 T02940154  RH  044%=      5-min Rain = 0
KST1 131945Z 16011KT 29/15 A2997 RMK A01 T02930154  RH  044%=      5-min Rain = 0
KST1 131950Z 16012G17KT 30/15 A2997 RMK A01 T02960154  RH  043%=      5-min Rain = 0
KST1 131955Z 16013KT 30/16 A2996 RMK A01 T03020155  RH  042%=      5-min Rain = 0
KST1 132000Z 15011KT 31/15 A2996 RMK A01 T03050154  RH  041%=      5-min Rain = 0
KST1 132005Z 17011G17KT 31/15 A2996 RMK A01 T03060152  RH  040%=      5-min Rain = 0
KST1 132010Z 16011KT 30/15 A2995 RMK A01 T03040151  RH  040%=      5-min Rain = 0
KST1 132015Z 15010KT 30/15 A2995 RMK A01 T03040148  RH  040%=      5-min Rain = 0
KST1 132020Z 15011KT 31/15 A2995 RMK A01 T03140150  RH  038%=      5-min Rain = 0
KST1 132025Z 15011G16KT 31/15 A2995 RMK A01 T03130147  RH  037%=      5-min Rain = 0
KST1 132030Z 14011KT 31/15 A2995 RMK A01 T03100147  RH  038%=      5-min Rain = 0
KST1 132035Z 17011KT 31/14 A2994 RMK A01 T03140142  RH  036%=      5-min Rain = 0
KST1 132040Z 16007KT 32/14 A2994 RMK A01 T03160139  RH  035%=      5-min Rain = 0
KST1 132045Z 14007KT 31/14 A2994 RMK A01 T03110138  RH  036%=      5-min Rain = 0
KST1 132050Z 13008KT 32/13 A2994 RMK A01 T03150134  RH  034%=      5-min Rain = 0
KST1 132055Z 15007KT 32/13 A2994 RMK A01 T03210134  RH  033%=      5-min Rain = 0
KST1 132100Z 14010KT 31/13 A2993 RMK A01 T03140131  RH  033%=      5-min Rain = 0
KST1 132105Z 18007KT 31/13 A2993 RMK A01 T03130129  RH  033%=      5-min Rain = 0
KST1 132110Z 20008KT 31/13 A2993 RMK A01 T03140125  RH  032%=      5-min Rain = 0
KST1 132115Z 20008KT 32/12 A2993 RMK A01 T03150121  RH  031%=      5-min Rain = 0
KST1 132120Z 19006KT 32/11 A2992 RMK A01 T03160114  RH  029%=      5-min Rain = 0
KST1 132125Z 16011G17KT 32/11 A2992 RMK A01 T03240108  RH  027%=      5-min Rain = 0
KST1 132130Z 17009KT 33/10 A2992 RMK A01 T03270103  RH  026%=      5-min Rain = 0
KST1 132135Z 17008KT 32/09 A2992 RMK A01 T03210094  RH  025%=      5-min Rain = 0
KST1 132140Z 15006KT 32/09 A2991 RMK A01 T03220090  RH  024%=      5-min Rain = 0
KST1 132145Z 15007KT 33/08 A2991 RMK A01 T03250082  RH  023%=      5-min Rain = 0
KST1 132150Z 16009KT 33/08 A2991 RMK A01 T03260081  RH  022%=      5-min Rain = 0
KST1 132155Z 15008KT 33/07 A2991 RMK A01 T03270072  RH  021%=      5-min Rain = 0
KST1 132200Z 15008KT 33/07 A2991 RMK A01 T03270068  RH  020%=      5-min Rain = 0
KST1 132205Z 17009KT 33/07 A299 RMK A01 T03300072  RH  021%=      5-min Rain = 0
KST1 132210Z 16016G23KT 33/14 A299 RMK A01 T03260137  RH  033%=      5-min Rain = 0
KST1 132215Z 17018G23KT 32/15 A299 RMK A01 T03210151  RH  037%=      5-min Rain = 0
KST1 132220Z 16018G24KT 32/15 A299 RMK A01 T03200151  RH  037%=      5-min Rain = 0
KST1 132225Z 15016G21KT 32/15 A299 RMK A01 T03220149  RH  036%=      5-min Rain = 0
KST1 132230Z 14014G20KT 32/15 A2989 RMK A01 T03170146  RH  036%=      5-min Rain = 0
KST1 132235Z 15013G18KT 32/14 A2989 RMK A01 T03160144  RH  036%=      5-min Rain = 0
KST1 132240Z 14013KT 32/15 A2989 RMK A01 T03170146  RH  036%=      5-min Rain = 0
KST1 132245Z 13013KT 32/15 A2989 RMK A01 T03160145  RH  036%=      5-min Rain = 0
KST1 132250Z 14014KT 31/14 A2989 RMK A01 T03130143  RH  036%=      5-min Rain = 0
KST1 132255Z 14014KT 32/14 A299 RMK A01 T03190141  RH  035%=      5-min Rain = 0
KST1 132300Z 16015KT 32/14 A299 RMK A01 T03170142  RH  035%=      5-min Rain = 0
KST1 132305Z 16013KT 32/14 A299 RMK A01 T03160140  RH  035%=      5-min Rain = 0
KST1 132310Z 16015G20KT 32/14 A299 RMK A01 T03170141  RH  035%=      5-min Rain = 0
KST1 132315Z 16015G20KT 31/14 A2991 RMK A01 T03140139  RH  035%=      5-min Rain = 0
KST1 132320Z 17014KT 32/14 A2991 RMK A01 T03150137  RH  035%=      5-min Rain = 0
KST1 132325Z 18013KT 31/13 A2991 RMK A01 T03140128  RH  033%=      5-min Rain = 0
KST1 132330Z 16014G19KT 31/14 A299 RMK A01 T03120136  RH  035%=      5-min Rain = 0
KST1 132335Z 16018G25KT 31/14 A2991 RMK A01 T03130144  RH  037%=      5-min Rain = 0
KST1 132340Z 17019G24KT 31/16 A299 RMK A01 T03060162  RH  043%=      5-min Rain = 0
KST1 132345Z 17018KT 30/16 A2991 RMK A01 T03040162  RH  043%=      5-min Rain = 0
KST1 132350Z 16018KT 30/16 A2991 RMK A01 T03030160  RH  043%=      5-min Rain = 0
KST1 132355Z 16017KT 30/16 A2991 RMK A01 T03010160  RH  044%=      5-min Rain = 0
KST1 140000Z 16016G22KT 30/16 A2991 RMK A01 T02990158  RH  044%=      5-min Rain = 0
KST1 140005Z 16016KT 30/16 A2991 RMK A01 T02990157  RH  043%=      5-min Rain = 0
KST1 140010Z 16017G22KT 30/16 A2991 RMK A01 T02970156  RH  043%=      5-min Rain = 0
KST1 140015Z 16016KT 30/15 A2991 RMK A01 T02970153  RH  043%=      5-min Rain = 0
KST1 140020Z 16017G22KT 30/15 A2991 RMK A01 T02970149  RH  042%=      5-min Rain = 0
KST1 140025Z 16016KT 30/15 A299 RMK A01 T02990147  RH  041%=      5-min Rain = 0
KST1 140030Z 16017KT 30/15 A299 RMK A01 T03000148  RH  040%=      5-min Rain = 0
KST1 140035Z 16018KT 30/15 A299 RMK A01 T02990148  RH  041%=      5-min Rain = 0
KST1 140040Z 17017KT 30/15 A299 RMK A01 T02980148  RH  041%=      5-min Rain = 0
KST1 140045Z 16017KT 30/15 A299 RMK A01 T02950145  RH  041%=      5-min Rain = 0
KST1 140050Z 16017KT 29/14 A299 RMK A01 T02930143  RH  041%=      5-min Rain = 0
KST1 140055Z 16016KT 29/14 A299 RMK A01 T02920142  RH  041%=      5-min Rain = 0
KST1 140100Z 16014KT 29/14 A299 RMK A01 T02910142  RH  041%=      5-min Rain = 0
KST1 140105Z 16015KT 29/15 A299 RMK A01 T02910146  RH  042%=      5-min Rain = 0
KST1 140110Z 16016KT 29/15 A299 RMK A01 T02890148  RH  043%=      5-min Rain = 0
KST1 140115Z 16015G20KT 29/15 A2991 RMK A01 T02880149  RH  044%=      5-min Rain = 0
KST1 140120Z 16016KT 29/15 A2991 RMK A01 T02860150  RH  044%=      5-min Rain = 0
KST1 140125Z 16016KT 29/15 A2991 RMK A01 T02850148  RH  044%=      5-min Rain = 0
KST1 140130Z 17015KT 28/15 A2991 RMK A01 T02840148  RH  044%=      5-min Rain = 0
KST1 140135Z 17015KT 28/15 A2991 RMK A01 T02830146  RH  044%=      5-min Rain = 0
KST1 140140Z 17015KT 28/15 A2991 RMK A01 T02810146  RH  045%=      5-min Rain = 0
KST1 140145Z 17014KT 28/15 A2992 RMK A01 T02800148  RH  045%=      5-min Rain = 0
KST1 140150Z 17013KT 28/15 A2992 RMK A01 T02800149  RH  046%=      5-min Rain = 0
KST1 140155Z 17011KT 28/15 A2992 RMK A01 T02780149  RH  046%=      5-min Rain = 0
KST1 140200Z 16011KT 28/15 A2992 RMK A01 T02770150  RH  047%=      5-min Rain = 0
KST1 140205Z 16013KT 28/15 A2992 RMK A01 T02770152  RH  047%=      5-min Rain = 0
KST1 140210Z 16013KT 28/15 A2992 RMK A01 T02760151  RH  048%=      5-min Rain = 0
KST1 140215Z 16014KT 28/15 A2992 RMK A01 T02750151  RH  048%=      5-min Rain = 0
KST1 140220Z 16015KT 28/15 A2992 RMK A01 T02750150  RH  048%=      5-min Rain = 0
KST1 140225Z 16015KT 27/15 A2992 RMK A01 T02730150  RH  048%=      5-min Rain = 0
KST1 140230Z 16014KT 27/15 A2993 RMK A01 T02730150  RH  048%=      5-min Rain = 0
KST1 140235Z 16014KT 27/15 A2993 RMK A01 T02720150  RH  048%=      5-min Rain = 0
KST1 140240Z 16014KT 27/15 A2993 RMK A01 T02700150  RH  049%=      5-min Rain = 0
KST1 140245Z 16015G21KT 27/15 A2993 RMK A01 T02700150  RH  049%=      5-min Rain = 0
KST1 140250Z 16017KT 27/15 A2993 RMK A01 T02700150  RH  049%=      5-min Rain = 0
KST1 140255Z 16017KT 27/15 A2993 RMK A01 T02690151  RH  049%=      5-min Rain = 0
KST1 140300Z 16017KT 27/15 A2993 RMK A01 T02680152  RH  050%=      5-min Rain = 0
KST1 140305Z 17015KT 27/15 A2993 RMK A01 T02660151  RH  050%=      5-min Rain = 0
KST1 140310Z 17015KT 27/15 A2993 RMK A01 T02660152  RH  051%=      5-min Rain = 0
KST1 140315Z 17017KT 27/15 A2993 RMK A01 T02650153  RH  051%=      5-min Rain = 0
KST1 140320Z 17017KT 26/15 A2994 RMK A01 T02640154  RH  052%=      5-min Rain = 0
KST1 140325Z 17017KT 26/15 A2994 RMK A01 T02640154  RH  052%=      5-min Rain = 0
KST1 140330Z 17018G23KT 26/16 A2994 RMK A01 T02620155  RH  053%=      5-min Rain = 0
KST1 140335Z 17019G25KT 26/16 A2994 RMK A01 T02610158  RH  054%=      5-min Rain = 0
KST1 140340Z 17016G21KT 26/16 A2994 RMK A01 T02590159  RH  055%=      5-min Rain = 0
KST1 140345Z 17018G24KT 26/16 A2994 RMK A01 T02590159  RH  055%=      5-min Rain = 0
KST1 140350Z 17018KT 26/16 A2994 RMK A01 T02580158  RH  055%=      5-min Rain = 0
KST1 140355Z 17017G22KT 26/16 A2994 RMK A01 T02580157  RH  055%=      5-min Rain = 0
KST1 140400Z 17015G21KT 26/16 A2995 RMK A01 T02570157  RH  055%=      5-min Rain = 0
KST1 140405Z 18015KT 26/16 A2995 RMK A01 T02560157  RH  056%=      5-min Rain = 0
KST1 140410Z 17014KT 25/16 A2995 RMK A01 T02540158  RH  056%=      5-min Rain = 0
KST1 140415Z 18014KT 25/16 A2995 RMK A01 T02530158  RH  057%=      5-min Rain = 0
KST1 140420Z 18014G20KT 25/16 A2995 RMK A01 T02520159  RH  058%=      5-min Rain = 0
KST1 140425Z 18015G20KT 25/16 A2995 RMK A01 T02510160  RH  058%=      5-min Rain = 0
KST1 140430Z 18015G20KT 25/16 A2995 RMK A01 T02500160  RH  059%=      5-min Rain = 0
KST1 140435Z 18015G20KT 25/16 A2995 RMK A01 T02490161  RH  059%=      5-min Rain = 0
KST1 140440Z 17014G19KT 25/16 A2995 RMK A01 T02480161  RH  060%=      5-min Rain = 0
KST1 140445Z 17015KT 25/16 A2995 RMK A01 T02480161  RH  060%=      5-min Rain = 0
KST1 140450Z 17015KT 25/16 A2995 RMK A01 T02470162  RH  060%=      5-min Rain = 0
KST1 140455Z 17015KT 25/16 A2994 RMK A01 T02470162  RH  061%=      5-min Rain = 0

Page generated in 0.0092 seconds.